createdAt,value
2018-12-02T00:00:00.868Z,0.0
2018-12-02T00:15:00.913Z,0.0
2018-12-02T00:30:00.915Z,0.0
2018-12-02T00:45:00.923Z,0.0
2018-12-02T01:00:00.954Z,0.0
2018-12-02T01:15:01.266Z,0.0
2018-12-02T01:30:00.929Z,0.0
2018-12-02T01:45:01.002Z,0.0
2018-12-02T02:00:00.979Z,0.0
2018-12-02T02:15:00.948Z,0.0
2018-12-02T02:30:00.957Z,0.0
2018-12-02T02:45:00.952Z,0.0
2018-12-02T03:00:01.050Z,0.0
2018-12-02T03:15:06.028Z,0.0
2018-12-02T03:30:06.033Z,0.0
2018-12-02T03:45:00.972Z,0.0
2018-12-02T04:00:02.050Z,0.0
2018-12-02T04:15:00.916Z,0.0
2018-12-02T04:30:01.960Z,0.0
2018-12-02T04:45:00.977Z,0.0
2018-12-02T05:00:00.952Z,0.0
2018-12-02T05:15:00.993Z,0.0
2018-12-02T05:30:00.992Z,0.0
2018-12-02T05:45:01.003Z,0.0
2018-12-02T06:00:01.026Z,0.0
2018-12-02T06:15:01.024Z,0.0
2018-12-02T06:27:01.020Z,0.1
2018-12-02T06:29:00.809Z,0.2
2018-12-02T06:30:00.804Z,0.3
2018-12-02T06:32:01.051Z,0.4
2018-12-02T06:33:00.781Z,0.5
2018-12-02T06:35:00.808Z,0.6
2018-12-02T06:36:00.836Z,0.7
2018-12-02T06:37:01.237Z,0.9
2018-12-02T06:38:00.778Z,1.0
2018-12-02T06:39:01.255Z,1.1
2018-12-02T06:40:00.808Z,1.3
2018-12-02T06:41:00.842Z,1.5
2018-12-02T06:42:00.961Z,1.7
2018-12-02T06:43:00.809Z,1.9
2018-12-02T06:44:00.936Z,2.1
2018-12-02T06:45:00.837Z,2.4
2018-12-02T06:46:00.815Z,2.7
2018-12-02T06:47:00.954Z,3.1
2018-12-02T06:48:00.859Z,3.6
2018-12-02T06:49:00.784Z,4.2
2018-12-02T06:50:00.835Z,4.9
2018-12-02T06:51:00.819Z,5.9
2018-12-02T06:52:01.177Z,6.9
2018-12-02T06:53:00.823Z,8.3
2018-12-02T06:54:00.813Z,10.0
2018-12-02T06:55:00.843Z,12.0
2018-12-02T06:56:00.817Z,14.7
2018-12-02T06:57:02.309Z,17.5
2018-12-02T06:58:00.816Z,20.9
2018-12-02T06:59:00.817Z,24.5
2018-12-02T07:00:00.842Z,28.9
2018-12-02T07:01:00.819Z,33.7
2018-12-02T07:02:00.965Z,39.1
2018-12-02T07:03:00.818Z,45.5
2018-12-02T07:04:00.815Z,52.1
2018-12-02T07:05:00.845Z,59.6
2018-12-02T07:06:00.848Z,67.9
2018-12-02T07:07:00.961Z,77.3
2018-12-02T07:08:00.815Z,87.3
2018-12-02T07:09:00.909Z,98.3
2018-12-02T07:10:00.818Z,111.1
2018-12-02T07:11:00.845Z,125.5
2018-12-02T07:12:00.967Z,140.0
2018-12-02T07:13:00.827Z,155.4
2018-12-02T07:14:01.965Z,172.1
2018-12-02T07:15:00.847Z,190.1
2018-12-02T07:16:00.823Z,210.7
2018-12-02T07:17:01.288Z,234.5
2018-12-02T07:18:00.819Z,254.9
2018-12-02T07:19:00.848Z,280.7
2018-12-02T07:20:00.819Z,307.3
2018-12-02T07:21:00.824Z,332.6
2018-12-02T07:22:02.116Z,360.1
2018-12-02T07:23:00.827Z,395.5
2018-12-02T07:24:01.104Z,429.6
2018-12-02T07:25:00.829Z,462.6
2018-12-02T07:26:00.860Z,495.2
2018-12-02T07:27:00.982Z,534.1
2018-12-02T07:28:00.820Z,574.3
2018-12-02T07:29:00.857Z,618.8
2018-12-02T07:30:00.822Z,662.8
2018-12-02T07:31:00.821Z,702.8
2018-12-02T07:32:00.975Z,748.9
2018-12-02T07:33:00.826Z,800.5
2018-12-02T07:34:00.850Z,850.2
2018-12-02T07:35:01.095Z,892.1
2018-12-02T07:36:00.908Z,939.1
2018-12-02T07:37:00.967Z,986.1
2018-12-02T07:38:00.824Z,1035.7
2018-12-02T07:39:00.856Z,1090.1
2018-12-02T07:40:00.920Z,1139.5
2018-12-02T07:41:00.832Z,1187.1
2018-12-02T07:42:01.044Z,1232.7
2018-12-02T07:43:00.826Z,1284.2
2018-12-02T07:44:00.862Z,1332.4
2018-12-02T07:45:00.825Z,1385.2
2018-12-02T07:46:00.800Z,1444.2
2018-12-02T07:47:00.969Z,1487.3
2018-12-02T07:48:00.854Z,1522.9
2018-12-02T07:49:00.834Z,1560.5
2018-12-02T07:50:00.828Z,1619.4
2018-12-02T07:51:00.832Z,1686.7
2018-12-02T07:52:01.047Z,1762.4
2018-12-02T07:53:00.992Z,1839.3
2018-12-02T07:54:00.857Z,1906.0
2018-12-02T07:55:00.801Z,1996.3
2018-12-02T07:56:00.924Z,2104.2
2018-12-02T07:57:01.250Z,2210.4
2018-12-02T07:58:00.833Z,2303.9
2018-12-02T07:59:00.879Z,2394.7
2018-12-02T08:00:00.829Z,2513.2
2018-12-02T08:01:00.827Z,2619.7
2018-12-02T08:02:00.975Z,2746.2
2018-12-02T08:03:00.833Z,2877.5
2018-12-02T08:04:00.856Z,3000.2
2018-12-02T08:05:00.834Z,3120.9
2018-12-02T08:06:00.833Z,3222.6
2018-12-02T08:07:00.973Z,3331.3
2018-12-02T08:08:00.833Z,3437.5
2018-12-02T08:09:00.870Z,3536.3
2018-12-02T08:10:00.842Z,3612.4
2018-12-02T08:11:00.833Z,3689.3
2018-12-02T08:12:00.982Z,3775.3
2018-12-02T08:13:00.838Z,3862.4
2018-12-02T08:14:00.870Z,3951.3
2018-12-02T08:15:00.838Z,3988.4
2018-12-02T08:16:00.840Z,4029.0
2018-12-02T08:17:00.982Z,4048.5
2018-12-02T08:18:00.833Z,4063.9
2018-12-02T08:19:00.865Z,4090.9
2018-12-02T08:20:00.840Z,4089.1
2018-12-02T08:21:00.835Z,4129.1
2018-12-02T08:22:02.098Z,4156.5
2018-12-02T08:23:00.843Z,4208.0
2018-12-02T08:24:00.876Z,4269.9
2018-12-02T08:25:00.842Z,4371.9
2018-12-02T08:26:00.809Z,4454.1
2018-12-02T08:27:00.986Z,4545.7
2018-12-02T08:28:00.840Z,4671.5
2018-12-02T08:29:00.898Z,4765.3
2018-12-02T08:30:00.845Z,4911.9
2018-12-02T08:31:00.842Z,5035.1
2018-12-02T08:32:01.083Z,5176.5
2018-12-02T08:33:00.818Z,5344.7
2018-12-02T08:34:01.045Z,5523.8
2018-12-02T08:35:00.839Z,5732.8
2018-12-02T08:36:00.843Z,5910.2
2018-12-02T08:37:01.049Z,6087.1
2018-12-02T08:38:00.844Z,6192.9
2018-12-02T08:39:02.154Z,6303.9
2018-12-02T08:40:00.848Z,6388.9
2018-12-02T08:41:00.840Z,6458.4
2018-12-02T08:42:00.983Z,6530.1
2018-12-02T08:43:00.843Z,6578.8
2018-12-02T08:44:00.843Z,6672.7
2018-12-02T08:45:00.866Z,6769.3
2018-12-02T08:46:00.843Z,6910.5
2018-12-02T08:47:01.463Z,7024.5
2018-12-02T08:48:00.843Z,7101.9
2018-12-02T08:49:00.845Z,7175.0
2018-12-02T08:50:00.869Z,7202.1
2018-12-02T08:51:00.892Z,7213.6
2018-12-02T08:52:02.315Z,7197.9
2018-12-02T08:53:00.846Z,7207.8
2018-12-02T08:54:00.856Z,7196.9
2018-12-02T08:55:00.881Z,7162.0
2018-12-02T08:56:01.120Z,7120.2
2018-12-02T08:57:01.084Z,7068.5
2018-12-02T08:58:00.846Z,6980.6
2018-12-02T08:59:00.842Z,6844.7
2018-12-02T09:00:00.884Z,6690.6
2018-12-02T09:01:00.845Z,6500.7
2018-12-02T09:02:00.989Z,6335.2
2018-12-02T09:03:00.846Z,6192.4
2018-12-02T09:04:01.057Z,6007.8
2018-12-02T09:05:00.875Z,5864.9
2018-12-02T09:06:00.820Z,5731.8
2018-12-02T09:07:00.997Z,5629.4
2018-12-02T09:08:00.851Z,5533.3
2018-12-02T09:09:03.393Z,5455.8
2018-12-02T09:10:00.878Z,5409.3
2018-12-02T09:11:00.850Z,5372.7
2018-12-02T09:12:01.062Z,5354.9
2018-12-02T09:13:00.857Z,5404.9
2018-12-02T09:14:00.862Z,5489.6
2018-12-02T09:15:00.880Z,5597.1
2018-12-02T09:16:00.859Z,5719.3
2018-12-02T09:17:01.036Z,5850.2
2018-12-02T09:18:00.855Z,5979.3
2018-12-02T09:19:00.866Z,6143.2
2018-12-02T09:20:00.883Z,6375.7
2018-12-02T09:21:01.427Z,6618.7
2018-12-02T09:22:01.064Z,6887.7
2018-12-02T09:23:00.832Z,7167.5
2018-12-02T09:24:00.865Z,7512.1
2018-12-02T09:25:00.889Z,7866.7
2018-12-02T09:26:02.098Z,8225.2
2018-12-02T09:27:01.003Z,8516.9
2018-12-02T09:28:00.857Z,8740.1
2018-12-02T09:29:00.858Z,8966.1
2018-12-02T09:30:00.863Z,9128.5
2018-12-02T09:31:00.859Z,9269.3
2018-12-02T09:32:01.007Z,9381.3
2018-12-02T09:33:00.862Z,9512.4
2018-12-02T09:34:00.860Z,9625.0
2018-12-02T09:35:00.894Z,9642.0
2018-12-02T09:36:00.891Z,9690.0
2018-12-02T09:37:01.011Z,9697.5
2018-12-02T09:38:00.862Z,9720.1
2018-12-02T09:39:00.860Z,9688.3
2018-12-02T09:40:00.898Z,9666.3
2018-12-02T09:41:00.866Z,9697.5
2018-12-02T09:42:01.009Z,9822.7
2018-12-02T09:43:00.939Z,10022.4
2018-12-02T09:44:01.178Z,10238.7
2018-12-02T09:45:00.905Z,10439.0
2018-12-02T09:46:00.865Z,10632.5
2018-12-02T09:47:01.074Z,10832.9
2018-12-02T09:48:00.865Z,11034.1
2018-12-02T09:49:00.872Z,11208.7
2018-12-02T09:50:00.901Z,11402.5
2018-12-02T09:51:00.868Z,11590.5
2018-12-02T09:52:01.011Z,11784.9
2018-12-02T09:53:00.841Z,11924.3
2018-12-02T09:54:00.876Z,12036.7
2018-12-02T09:55:00.893Z,12108.5
2018-12-02T09:56:00.901Z,12163.0
2018-12-02T09:57:01.045Z,12289.3
2018-12-02T09:58:00.873Z,12406.5
2018-12-02T09:59:00.897Z,12519.4
2018-12-02T10:00:00.877Z,12688.4
2018-12-02T10:01:00.875Z,12908.8
2018-12-02T10:02:01.013Z,13107.5
2018-12-02T10:03:00.871Z,13216.5
2018-12-02T10:04:00.899Z,13301.0
2018-12-02T10:05:01.191Z,13408.1
2018-12-02T10:06:00.869Z,13452.0
2018-12-02T10:07:01.028Z,13508.4
2018-12-02T10:08:00.877Z,13559.8
2018-12-02T10:09:00.899Z,13585.7
2018-12-02T10:10:02.232Z,13559.0
2018-12-02T10:11:00.878Z,13415.4
2018-12-02T10:12:01.024Z,13116.9
2018-12-02T10:13:00.874Z,12780.7
2018-12-02T10:14:00.901Z,12434.7
2018-12-02T10:15:00.903Z,12113.3
2018-12-02T10:16:00.878Z,11736.3
2018-12-02T10:17:01.094Z,11355.5
2018-12-02T10:18:00.984Z,11060.7
2018-12-02T10:19:00.902Z,10777.8
2018-12-02T10:20:00.878Z,10472.7
2018-12-02T10:21:00.878Z,10201.7
2018-12-02T10:22:01.024Z,9904.1
2018-12-02T10:23:00.881Z,9677.4
2018-12-02T10:24:00.905Z,9479.5
2018-12-02T10:25:00.875Z,9317.3
2018-12-02T10:26:00.876Z,9261.8
2018-12-02T10:27:01.088Z,9242.5
2018-12-02T10:28:00.903Z,9255.1
2018-12-02T10:29:00.876Z,9246.4
2018-12-02T10:30:00.879Z,9192.3
2018-12-02T10:31:01.158Z,9174.7
2018-12-02T10:32:01.024Z,9226.1
2018-12-02T10:33:00.921Z,9251.9
2018-12-02T10:34:00.883Z,9346.5
2018-12-02T10:35:00.880Z,9461.5
2018-12-02T10:36:02.001Z,9627.1
2018-12-02T10:37:01.095Z,9805.4
2018-12-02T10:38:00.910Z,9947.7
2018-12-02T10:39:00.885Z,10138.9
2018-12-02T10:40:00.882Z,10297.7
2018-12-02T10:41:00.888Z,10394.6
2018-12-02T10:42:01.092Z,10485.5
2018-12-02T10:43:00.923Z,10575.8
2018-12-02T10:44:00.856Z,10712.9
2018-12-02T10:45:00.886Z,10847.6
2018-12-02T10:46:00.903Z,10979.3
2018-12-02T10:47:01.032Z,11066.9
2018-12-02T10:48:00.910Z,11167.6
2018-12-02T10:49:00.884Z,11260.0
2018-12-02T10:50:00.887Z,11322.7
2018-12-02T10:51:00.863Z,11299.1
2018-12-02T10:52:01.033Z,11285.2
2018-12-02T10:53:00.911Z,11233.7
2018-12-02T10:54:00.901Z,11111.0
2018-12-02T10:55:00.910Z,10997.2
2018-12-02T10:56:00.887Z,10896.5
2018-12-02T10:57:01.065Z,10766.2
2018-12-02T10:58:00.914Z,10574.7
2018-12-02T10:59:00.886Z,10374.3
2018-12-02T11:00:00.856Z,10161.1
2018-12-02T11:01:00.890Z,9925.6
2018-12-02T11:02:01.097Z,9692.2
2018-12-02T11:03:00.913Z,9397.1
2018-12-02T11:04:00.888Z,9117.7
2018-12-02T11:05:00.888Z,8848.9
2018-12-02T11:06:01.077Z,8644.5
2018-12-02T11:07:01.042Z,8397.9
2018-12-02T11:08:00.895Z,8175.5
2018-12-02T11:09:00.890Z,7991.5
2018-12-02T11:10:00.890Z,7815.7
2018-12-02T11:11:00.921Z,7681.1
2018-12-02T11:12:01.040Z,7582.5
2018-12-02T11:13:00.894Z,7498.0
2018-12-02T11:14:00.869Z,7406.2
2018-12-02T11:15:00.868Z,7348.6
2018-12-02T11:16:00.921Z,7342.3
2018-12-02T11:17:01.040Z,7365.5
2018-12-02T11:18:00.899Z,7462.3
2018-12-02T11:19:00.904Z,7530.2
2018-12-02T11:20:00.862Z,7603.5
2018-12-02T11:21:00.929Z,7652.7
2018-12-02T11:22:01.042Z,7776.6
2018-12-02T11:23:01.966Z,7904.4
2018-12-02T11:24:00.899Z,8075.9
2018-12-02T11:25:00.868Z,8335.5
2018-12-02T11:26:00.921Z,8612.7
2018-12-02T11:27:01.047Z,8939.5
2018-12-02T11:28:00.896Z,9328.7
2018-12-02T11:29:00.894Z,9687.4
2018-12-02T11:30:00.898Z,10136.6
2018-12-02T11:31:00.925Z,10536.9
2018-12-02T11:32:01.108Z,10929.3
2018-12-02T11:33:00.904Z,11324.7
2018-12-02T11:34:00.899Z,11823.2
2018-12-02T11:35:00.871Z,12343.7
2018-12-02T11:36:00.922Z,12973.3
2018-12-02T11:37:01.043Z,13629.8
2018-12-02T11:38:00.901Z,14349.6
2018-12-02T11:39:00.900Z,14986.9
2018-12-02T11:40:00.899Z,15642.7
2018-12-02T11:41:00.936Z,16271.3
2018-12-02T11:42:01.051Z,16947.0
2018-12-02T11:43:00.902Z,17470.0
2018-12-02T11:44:00.899Z,18013.7
2018-12-02T11:45:00.905Z,18490.3
2018-12-02T11:46:00.927Z,19270.3
2018-12-02T11:47:01.107Z,20054.9
2018-12-02T11:48:00.909Z,20870.7
2018-12-02T11:49:01.162Z,21580.3
2018-12-02T11:50:00.904Z,22155.2
2018-12-02T11:51:00.939Z,22658.1
2018-12-02T11:52:01.051Z,23099.9
2018-12-02T11:53:00.905Z,23366.4
2018-12-02T11:54:01.464Z,23734.7
2018-12-02T11:55:00.905Z,24021.7
2018-12-02T11:56:00.933Z,24344.8
2018-12-02T11:57:01.076Z,24539.3
2018-12-02T11:58:01.084Z,24781.7
2018-12-02T11:59:00.913Z,25005.7
2018-12-02T12:00:00.908Z,25126.7
2018-12-02T12:01:00.934Z,24906.0
2018-12-02T12:02:01.414Z,24615.1
2018-12-02T12:03:00.915Z,24262.5
2018-12-02T12:04:00.916Z,23982.2
2018-12-02T12:05:00.914Z,23813.1
2018-12-02T12:06:00.933Z,23741.4
2018-12-02T12:07:01.279Z,23646.5
2018-12-02T12:08:01.212Z,23536.5
2018-12-02T12:09:00.909Z,23331.1
2018-12-02T12:10:00.911Z,23054.5
2018-12-02T12:11:00.972Z,22819.5
2018-12-02T12:12:01.067Z,22584.4
2018-12-02T12:13:00.935Z,22475.4
2018-12-02T12:14:00.909Z,22449.9
2018-12-02T12:15:01.042Z,22456.0
2018-12-02T12:16:00.916Z,22564.3
2018-12-02T12:17:01.094Z,22607.9
2018-12-02T12:18:00.882Z,22625.1
2018-12-02T12:19:00.914Z,22540.0
2018-12-02T12:20:02.010Z,22339.2
2018-12-02T12:21:00.915Z,21940.8
2018-12-02T12:22:01.125Z,21470.0
2018-12-02T12:23:00.916Z,21097.9
2018-12-02T12:24:00.913Z,20728.4
2018-12-02T12:25:00.918Z,20430.9
2018-12-02T12:26:00.914Z,20137.5
2018-12-02T12:27:01.052Z,19776.6
2018-12-02T12:28:00.922Z,19358.6
2018-12-02T12:29:00.915Z,18884.0
2018-12-02T12:30:00.922Z,18379.4
2018-12-02T12:31:00.915Z,17825.0
2018-12-02T12:32:01.135Z,17338.8
2018-12-02T12:33:00.886Z,16936.5
2018-12-02T12:34:00.921Z,16561.1
2018-12-02T12:35:00.926Z,16271.0
2018-12-02T12:36:00.918Z,15967.0
2018-12-02T12:37:01.097Z,15727.5
2018-12-02T12:38:00.922Z,15474.9
2018-12-02T12:39:00.893Z,15270.4
2018-12-02T12:40:00.923Z,15062.4
2018-12-02T12:41:00.919Z,14874.0
2018-12-02T12:42:01.092Z,14786.9
2018-12-02T12:43:00.917Z,14673.9
2018-12-02T12:44:00.919Z,14609.1
2018-12-02T12:45:00.926Z,14592.5
2018-12-02T12:46:01.244Z,14565.7
2018-12-02T12:47:01.355Z,14639.7
2018-12-02T12:48:00.925Z,14696.7
2018-12-02T12:49:00.944Z,14841.5
2018-12-02T12:50:00.928Z,15113.3
2018-12-02T12:51:01.786Z,15591.3
2018-12-02T12:52:01.075Z,16177.9
2018-12-02T12:53:00.921Z,16804.2
2018-12-02T12:54:00.919Z,17505.7
2018-12-02T12:55:00.924Z,18256.3
2018-12-02T12:56:00.961Z,18938.4
2018-12-02T12:57:01.092Z,19485.1
2018-12-02T12:58:00.922Z,19982.5
2018-12-02T12:59:00.925Z,20322.2
2018-12-02T13:00:00.923Z,20595.9
2018-12-02T13:01:00.949Z,20936.5
2018-12-02T13:02:01.073Z,21208.9
2018-12-02T13:03:00.896Z,21432.5
2018-12-02T13:04:00.896Z,21386.5
2018-12-02T13:05:00.930Z,21210.0
2018-12-02T13:06:00.960Z,20908.5
2018-12-02T13:07:01.072Z,20487.7
2018-12-02T13:08:01.842Z,20008.9
2018-12-02T13:09:00.935Z,19397.4
2018-12-02T13:10:00.927Z,18688.3
2018-12-02T13:11:00.987Z,17896.4
2018-12-02T13:12:01.078Z,17185.8
2018-12-02T13:13:00.929Z,16471.1
2018-12-02T13:14:00.928Z,15767.0
2018-12-02T13:15:00.929Z,15171.8
2018-12-02T13:16:00.900Z,14573.1
2018-12-02T13:17:01.073Z,14003.9
2018-12-02T13:18:00.933Z,13493.1
2018-12-02T13:19:00.908Z,13170.3
2018-12-02T13:20:00.962Z,12792.2
2018-12-02T13:21:00.934Z,12339.2
2018-12-02T13:22:01.090Z,11875.5
2018-12-02T13:23:01.935Z,11484.8
2018-12-02T13:24:00.933Z,11143.4
2018-12-02T13:25:01.063Z,10838.5
2018-12-02T13:26:00.941Z,10597.3
2018-12-02T13:27:01.103Z,10394.7
2018-12-02T13:28:00.935Z,10321.9
2018-12-02T13:29:00.935Z,10336.1
2018-12-02T13:30:00.968Z,10300.8
2018-12-02T13:31:00.932Z,10203.2
2018-12-02T13:32:01.081Z,10096.9
2018-12-02T13:33:00.939Z,9923.4
2018-12-02T13:34:01.504Z,9756.3
2018-12-02T13:35:00.960Z,9625.9
2018-12-02T13:36:00.940Z,9577.7
2018-12-02T13:37:01.505Z,9534.2
2018-12-02T13:38:00.934Z,9484.7
2018-12-02T13:39:00.940Z,9400.4
2018-12-02T13:40:00.962Z,9315.9
2018-12-02T13:41:00.906Z,9180.3
2018-12-02T13:42:02.228Z,9032.5
2018-12-02T13:43:00.937Z,8833.7
2018-12-02T13:44:00.934Z,8635.1
2018-12-02T13:45:00.962Z,8489.1
2018-12-02T13:46:00.936Z,8378.5
2018-12-02T13:47:01.087Z,8315.1
2018-12-02T13:48:00.943Z,8268.1
2018-12-02T13:49:00.962Z,8188.1
2018-12-02T13:50:00.938Z,8120.3
2018-12-02T13:51:00.939Z,8035.3
2018-12-02T13:52:01.091Z,8024.3
2018-12-02T13:53:00.908Z,8054.4
2018-12-02T13:54:01.102Z,8110.1
2018-12-02T13:55:00.943Z,8133.4
2018-12-02T13:56:00.939Z,8232.8
2018-12-02T13:57:01.110Z,8354.9
2018-12-02T13:58:00.910Z,8415.9
2018-12-02T13:59:00.970Z,8440.2
2018-12-02T14:00:00.953Z,8440.1
2018-12-02T14:01:00.965Z,8418.5
2018-12-02T14:02:01.058Z,8286.0
2018-12-02T14:03:00.946Z,8116.2
2018-12-02T14:04:00.940Z,8000.9
2018-12-02T14:05:00.941Z,7883.3
2018-12-02T14:06:00.972Z,7765.5
2018-12-02T14:07:01.087Z,7647.1
2018-12-02T14:08:00.942Z,7518.5
2018-12-02T14:09:00.913Z,7436.1
2018-12-02T14:10:00.914Z,7449.3
2018-12-02T14:11:01.227Z,7445.6
2018-12-02T14:12:01.092Z,7428.1
2018-12-02T14:13:00.914Z,7438.3
2018-12-02T14:14:00.946Z,7472.9
2018-12-02T14:15:00.947Z,7488.6
2018-12-02T14:16:02.106Z,7480.3
2018-12-02T14:17:01.096Z,7515.6
2018-12-02T14:18:00.944Z,7581.3
2018-12-02T14:19:00.949Z,7631.1
2018-12-02T14:20:00.946Z,7697.4
2018-12-02T14:21:00.978Z,7738.9
2018-12-02T14:22:01.155Z,7716.9
2018-12-02T14:23:00.949Z,7666.5
2018-12-02T14:24:00.916Z,7550.9
2018-12-02T14:25:02.839Z,7373.7
2018-12-02T14:26:00.982Z,7142.9
2018-12-02T14:27:01.065Z,6883.2
2018-12-02T14:28:00.947Z,6651.4
2018-12-02T14:29:01.736Z,6418.4
2018-12-02T14:30:00.950Z,6195.1
2018-12-02T14:31:00.977Z,5964.6
2018-12-02T14:32:01.095Z,5735.4
2018-12-02T14:33:00.951Z,5521.0
2018-12-02T14:34:00.949Z,5301.1
2018-12-02T14:35:00.946Z,5081.9
2018-12-02T14:36:01.091Z,4884.3
2018-12-02T14:37:01.225Z,4739.4
2018-12-02T14:38:00.946Z,4586.8
2018-12-02T14:39:00.947Z,4456.1
2018-12-02T14:40:00.950Z,4346.7
2018-12-02T14:41:01.183Z,4273.7
2018-12-02T14:42:01.154Z,4209.1
2018-12-02T14:43:00.950Z,4137.7
2018-12-02T14:44:00.956Z,4076.2
2018-12-02T14:45:00.950Z,3992.2
2018-12-02T14:46:05.959Z,3941.5
2018-12-02T14:47:01.100Z,3879.8
2018-12-02T14:48:00.949Z,3800.5
2018-12-02T14:49:00.953Z,3695.1
2018-12-02T14:50:00.980Z,3606.1
2018-12-02T14:51:00.948Z,3496.3
2018-12-02T14:52:01.102Z,3347.7
2018-12-02T14:53:00.952Z,3211.0
2018-12-02T14:54:00.954Z,3082.0
2018-12-02T14:55:00.976Z,2940.6
2018-12-02T14:56:00.953Z,2781.3
2018-12-02T14:57:01.123Z,2639.2
2018-12-02T14:58:00.954Z,2488.9
2018-12-02T14:59:02.117Z,2325.5
2018-12-02T15:00:00.954Z,2177.3
2018-12-02T15:01:00.959Z,2027.7
2018-12-02T15:02:01.169Z,1893.7
2018-12-02T15:03:00.955Z,1769.1
2018-12-02T15:04:00.955Z,1663.9
2018-12-02T15:05:00.959Z,1556.2
2018-12-02T15:06:00.960Z,1466.5
2018-12-02T15:07:06.111Z,1386.4
2018-12-02T15:08:01.072Z,1302.1
2018-12-02T15:09:00.953Z,1200.2
2018-12-02T15:10:00.956Z,1110.3
2018-12-02T15:11:01.090Z,1033.9
2018-12-02T15:12:01.133Z,962.5
2018-12-02T15:13:00.956Z,897.5
2018-12-02T15:14:00.956Z,841.7
2018-12-02T15:15:00.958Z,792.1
2018-12-02T15:16:02.089Z,742.1
2018-12-02T15:17:01.132Z,695.9
2018-12-02T15:18:00.925Z,652.7
2018-12-02T15:19:00.957Z,608.8
2018-12-02T15:20:00.957Z,564.9
2018-12-02T15:21:00.987Z,519.3
2018-12-02T15:22:01.099Z,478.1
2018-12-02T15:23:00.964Z,439.3
2018-12-02T15:24:01.028Z,401.1
2018-12-02T15:25:00.963Z,364.8
2018-12-02T15:26:00.987Z,328.9
2018-12-02T15:27:01.166Z,294.3
2018-12-02T15:28:00.958Z,263.2
2018-12-02T15:29:00.958Z,234.7
2018-12-02T15:30:00.964Z,207.4
2018-12-02T15:31:00.990Z,181.9
2018-12-02T15:32:01.137Z,156.6
2018-12-02T15:33:02.017Z,133.3
2018-12-02T15:34:00.962Z,112.0
2018-12-02T15:35:00.959Z,94.7
2018-12-02T15:36:01.234Z,80.7
2018-12-02T15:37:01.182Z,68.7
2018-12-02T15:38:00.963Z,58.4
2018-12-02T15:39:00.963Z,49.8
2018-12-02T15:40:00.968Z,41.4
2018-12-02T15:41:01.093Z,33.7
2018-12-02T15:42:01.106Z,26.9
2018-12-02T15:43:00.989Z,21.3
2018-12-02T15:44:00.970Z,16.9
2018-12-02T15:45:00.962Z,13.3
2018-12-02T15:46:00.965Z,10.6
2018-12-02T15:47:01.112Z,8.7
2018-12-02T15:48:00.991Z,7.2
2018-12-02T15:49:00.970Z,6.3
2018-12-02T15:50:00.965Z,5.5
2018-12-02T15:51:00.966Z,4.8
2018-12-02T15:52:01.109Z,4.2
2018-12-02T15:53:00.993Z,3.7
2018-12-02T15:54:00.968Z,3.2
2018-12-02T15:55:00.966Z,2.8
2018-12-02T15:56:00.967Z,2.5
2018-12-02T15:57:01.142Z,2.3
2018-12-02T15:58:00.995Z,2.1
2018-12-02T15:59:00.972Z,1.9
2018-12-02T16:00:00.969Z,1.8
2018-12-02T16:01:00.972Z,1.7
2018-12-02T16:02:01.174Z,1.5
2018-12-02T16:03:01.322Z,1.3
2018-12-02T16:04:00.974Z,1.1
2018-12-02T16:05:01.018Z,0.9
2018-12-02T16:06:00.972Z,0.7
2018-12-02T16:07:01.116Z,0.6
2018-12-02T16:08:00.973Z,0.5
2018-12-02T16:10:01.009Z,0.4
2018-12-02T16:11:00.978Z,0.3
2018-12-02T16:13:01.116Z,0.2
2018-12-02T16:14:00.980Z,0.1
2018-12-02T16:15:01.007Z,0.1
2018-12-02T18:20:11.827Z,0.0
2018-12-02T18:40:00.671Z,0.0
2018-12-02T18:45:00.570Z,0.0
2018-12-02T19:00:00.627Z,0.0
2018-12-02T19:15:00.836Z,0.0
2018-12-02T19:30:01.071Z,0.0
2018-12-02T19:45:00.653Z,0.0
2018-12-02T20:00:00.820Z,0.0
2018-12-02T20:15:00.630Z,0.0
2018-12-02T20:30:01.534Z,0.0
2018-12-02T20:45:00.668Z,0.0
2018-12-02T21:00:00.571Z,0.0
2018-12-02T21:15:01.073Z,0.0
2018-12-02T21:30:00.647Z,0.0
2018-12-02T21:45:00.617Z,0.0
2018-12-02T22:00:00.746Z,0.0
2018-12-02T22:15:00.907Z,0.0
2018-12-02T22:30:00.770Z,0.0
2018-12-02T22:45:00.728Z,0.0
2018-12-02T23:00:00.794Z,0.0
2018-12-02T23:15:00.642Z,0.0
2018-12-02T23:30:00.656Z,0.0
2018-12-02T23:45:00.652Z,0.0
